createdAt,value
2023-05-12T00:01:33.362Z,7.87
2023-05-12T00:04:37.139Z,10.67
2023-05-12T00:07:41.240Z,9.13
2023-05-12T00:10:43.984Z,11.23
2023-05-12T00:13:46.702Z,11.43
2023-05-12T00:16:51.953Z,10.73
2023-05-12T00:19:54.723Z,11.20
2023-05-12T00:22:58.750Z,15.23
2023-05-12T00:26:01.383Z,9.30
2023-05-12T00:29:04.242Z,10.13
2023-05-12T00:32:08.336Z,11.50
2023-05-12T00:35:11.239Z,11.53
2023-05-12T00:38:15.280Z,15.20
2023-05-12T00:41:17.926Z,14.47
2023-05-12T00:44:22.977Z,14.57
2023-05-12T00:47:25.688Z,14.47
2023-05-12T00:50:28.621Z,10.63
2023-05-12T00:53:47.821Z,12.50
2023-05-12T00:56:52.205Z,10.13
2023-05-12T00:59:55.274Z,12.87
2023-05-12T01:02:58.664Z,10.77
2023-05-12T01:06:07.508Z,13.07
2023-05-12T01:09:11.610Z,13.93
2023-05-12T01:12:14.274Z,15.77
2023-05-12T01:15:18.150Z,10.20
2023-05-12T01:18:22.846Z,12.93
2023-05-12T01:21:25.869Z,9.03
2023-05-12T01:24:33.399Z,10.53
2023-05-12T01:27:39.700Z,7.27
2023-05-12T01:30:44.615Z,5.77
2023-05-12T01:33:47.365Z,6.97
2023-05-12T01:36:49.992Z,6.27
2023-05-12T01:39:52.665Z,7.23
2023-05-12T01:42:56.696Z,6.50
2023-05-12T01:45:59.512Z,5.93
2023-05-12T01:49:02.821Z,9.33
2023-05-12T01:52:06.442Z,9.77
2023-05-12T01:55:09.372Z,5.30
2023-05-12T01:58:13.368Z,5.90
2023-05-12T02:01:16.096Z,7.17
2023-05-12T02:04:19.188Z,6.23
2023-05-12T02:07:21.858Z,4.90
2023-05-12T02:10:24.498Z,6.83
2023-05-12T02:13:29.315Z,6.33
2023-05-12T02:16:32.051Z,5.70
2023-05-12T02:19:35.177Z,8.37
2023-05-12T02:22:37.802Z,11.17
2023-05-12T02:25:40.710Z,7.73
2023-05-12T02:28:44.735Z,8.70
2023-05-12T02:31:47.498Z,8.27
2023-05-12T02:34:53.283Z,7.20
2023-05-12T02:37:56.245Z,8.33
2023-05-12T02:40:59.181Z,7.17
2023-05-12T02:44:03.232Z,6.57
2023-05-12T02:47:08.994Z,13.33
2023-05-12T02:50:11.904Z,9.80
2023-05-12T02:53:17.378Z,10.53
2023-05-12T02:56:20.279Z,14.23
2023-05-12T02:59:24.449Z,9.90
2023-05-12T03:02:27.557Z,13.43
2023-05-12T03:05:30.736Z,11.67
2023-05-12T03:08:33.493Z,11.63
2023-05-12T03:11:36.161Z,13.87
2023-05-12T03:14:40.202Z,10.03
2023-05-12T03:17:43.180Z,11.27
2023-05-12T03:20:46.036Z,12.50
2023-05-12T03:23:48.766Z,14.03
2023-05-12T03:26:51.447Z,11.37
2023-05-12T03:29:55.429Z,15.83
2023-05-12T03:32:58.188Z,18.47
2023-05-12T03:36:00.862Z,14.10
2023-05-12T03:39:04.463Z,14.30
2023-05-12T03:42:07.609Z,15.60
2023-05-12T03:45:12.560Z,11.57
2023-05-12T03:48:15.358Z,13.17
2023-05-12T03:51:18.132Z,9.80
2023-05-12T03:54:20.866Z,11.67
2023-05-12T03:57:23.529Z,10.17
2023-05-12T04:00:27.756Z,12.27
2023-05-12T04:03:31.139Z,11.30
2023-05-12T04:06:33.878Z,10.00
2023-05-12T04:09:36.552Z,14.63
2023-05-12T04:12:39.646Z,8.97
2023-05-12T04:15:44.135Z,10.53
2023-05-12T04:18:46.822Z,10.93
2023-05-12T04:21:49.529Z,10.97
2023-05-12T04:24:52.258Z,10.60
2023-05-12T04:27:54.937Z,10.97
2023-05-12T04:31:04.349Z,10.87
2023-05-12T04:34:06.993Z,13.40
2023-05-12T04:37:09.695Z,20.03
2023-05-12T04:40:12.704Z,16.00
2023-05-12T04:46:26.991Z,11.90
2023-05-12T04:49:29.716Z,13.40
2023-05-12T04:52:32.387Z,10.63
2023-05-12T04:55:35.164Z,10.00
2023-05-12T04:58:38.402Z,11.57
2023-05-12T05:01:42.625Z,16.10
2023-05-12T05:04:45.529Z,12.97
2023-05-12T05:07:48.780Z,10.80
2023-05-12T05:10:51.441Z,9.53
2023-05-12T05:13:54.130Z,10.73
2023-05-12T05:16:58.214Z,11.07
2023-05-12T05:20:01.013Z,11.27
2023-05-12T05:23:04.101Z,15.17
2023-05-12T05:26:06.785Z,11.30
2023-05-12T05:29:09.429Z,11.30
2023-05-12T05:32:13.527Z,13.83
2023-05-12T05:35:16.665Z,8.87
2023-05-12T05:38:19.355Z,12.80
2023-05-12T05:41:22.368Z,11.70
2023-05-12T05:44:25.144Z,7.67
2023-05-12T05:47:29.311Z,7.43
2023-05-12T05:50:31.964Z,10.73
2023-05-12T05:53:35.011Z,9.83
2023-05-12T05:56:39.980Z,12.03
2023-05-12T05:59:42.946Z,9.00
2023-05-12T06:02:49.769Z,7.57
2023-05-12T06:05:52.558Z,27.90
2023-05-12T06:08:56.095Z,8.03
2023-05-12T06:12:08.398Z,10.63
2023-05-12T06:15:11.729Z,39.20
2023-05-12T06:18:16.230Z,16.33
2023-05-12T06:21:18.980Z,18.43
2023-05-12T06:24:21.678Z,12.20
2023-05-12T06:27:24.438Z,26.53
2023-05-12T06:30:27.686Z,18.70
2023-05-12T06:33:31.732Z,20.97
2023-05-12T06:36:34.603Z,7.93
2023-05-12T06:39:37.295Z,8.97
2023-05-12T06:42:40.190Z,8.93
2023-05-12T06:45:43.074Z,21.53
2023-05-12T06:48:49.860Z,34.37
2023-05-12T06:51:52.537Z,17.20
2023-05-12T06:54:55.168Z,11.47
2023-05-12T06:57:57.845Z,9.50
2023-05-12T07:01:00.640Z,14.07
2023-05-12T07:04:05.941Z,7.23
2023-05-12T07:07:08.775Z,7.30
2023-05-12T07:10:11.793Z,9.03
2023-05-12T07:13:15.349Z,6.53
2023-05-12T07:16:19.174Z,7.47
2023-05-12T07:19:26.738Z,13.20
2023-05-12T07:22:29.966Z,7.10
2023-05-12T07:25:32.645Z,4.30
2023-05-12T07:28:36.643Z,5.17
2023-05-12T07:31:39.538Z,6.20
2023-05-12T07:34:43.677Z,7.90
2023-05-12T07:37:46.543Z,4.70
2023-05-12T07:40:49.171Z,10.83
2023-05-12T07:43:52.541Z,8.07
2023-05-12T07:46:58.227Z,8.63
2023-05-12T07:50:02.355Z,6.60
2023-05-12T07:53:05.765Z,9.80
2023-05-12T07:56:08.611Z,14.13
2023-05-12T07:59:11.806Z,7.10
2023-05-12T08:02:15.004Z,6.90
2023-05-12T08:05:22.387Z,8.33
2023-05-12T08:08:25.233Z,6.83
2023-05-12T08:11:28.155Z,6.77
2023-05-12T08:14:30.829Z,8.97
2023-05-12T08:17:34.914Z,6.00
2023-05-12T08:20:39.788Z,5.43
2023-05-12T08:23:44.773Z,8.47
2023-05-12T08:26:47.509Z,6.83
2023-05-12T08:29:52.316Z,6.77
2023-05-12T08:32:55.239Z,9.80
2023-05-12T08:35:59.348Z,8.13
2023-05-12T08:39:03.426Z,12.07
2023-05-12T08:42:17.448Z,7.90
2023-05-12T08:45:20.450Z,8.20
2023-05-12T08:48:24.529Z,12.20
2023-05-12T08:51:30.148Z,11.70
2023-05-12T08:54:36.023Z,9.90
2023-05-12T08:57:45.736Z,6.37
2023-05-12T09:00:52.563Z,6.27
2023-05-12T09:03:55.357Z,5.57
2023-05-12T09:06:59.848Z,8.20
2023-05-12T09:10:06.711Z,6.73
2023-05-12T09:13:21.220Z,4.77
2023-05-12T09:16:26.559Z,4.60
2023-05-12T09:19:31.703Z,6.67
2023-05-12T09:22:35.950Z,7.07
2023-05-12T09:25:38.681Z,6.70
2023-05-12T09:28:41.481Z,6.43
2023-05-12T09:31:50.974Z,5.43
2023-05-12T09:34:56.067Z,7.20
2023-05-12T09:38:06.886Z,6.97
2023-05-12T09:41:09.508Z,4.63
2023-05-12T09:44:17.443Z,7.63
2023-05-12T09:47:20.121Z,9.00
2023-05-12T09:50:23.643Z,6.80
2023-05-12T09:53:28.094Z,6.30
2023-05-12T09:56:32.360Z,5.33
2023-05-12T09:59:36.517Z,5.30
2023-05-12T10:02:42.688Z,10.27
2023-05-12T10:05:50.526Z,4.37
2023-05-12T10:09:00.475Z,8.60
2023-05-12T10:12:06.456Z,6.37
2023-05-12T10:15:11.640Z,5.90
2023-05-12T10:18:15.969Z,4.87
2023-05-12T10:21:19.529Z,5.40
2023-05-12T10:24:27.804Z,5.23
2023-05-12T10:27:32.198Z,7.10
2023-05-12T10:30:36.039Z,7.50
2023-05-12T10:33:38.919Z,5.27
2023-05-12T10:36:47.707Z,4.13
2023-05-12T10:39:53.261Z,4.60
2023-05-12T10:42:59.632Z,4.70
2023-05-12T10:46:17.892Z,10.20
2023-05-12T10:49:20.610Z,10.13
2023-05-12T10:52:23.336Z,6.40
2023-05-12T10:55:43.288Z,4.67
2023-05-12T10:59:08.581Z,5.23
2023-05-12T11:02:17.103Z,6.53
2023-05-12T11:05:20.318Z,6.93
2023-05-12T11:08:24.822Z,2.83
2023-05-12T11:11:29.911Z,6.33
2023-05-12T11:14:33.354Z,3.03
2023-05-12T11:17:40.142Z,2.97
2023-05-12T11:20:43.600Z,5.53
2023-05-12T11:23:52.022Z,6.10
2023-05-12T11:26:56.428Z,3.03
2023-05-12T11:30:04.416Z,6.00
2023-05-12T11:33:07.138Z,3.37
2023-05-12T11:36:11.230Z,3.40
2023-05-12T11:39:18.160Z,2.03
2023-05-12T11:42:24.415Z,2.53
2023-05-12T11:45:30.484Z,3.37
2023-05-12T11:48:34.633Z,3.23
2023-05-12T11:51:37.445Z,1.77
2023-05-12T11:54:40.361Z,1.60
2023-05-12T11:57:44.387Z,3.03
2023-05-12T12:00:47.181Z,4.30
2023-05-12T12:03:51.547Z,7.03
2023-05-12T12:06:54.289Z,3.10
2023-05-12T12:09:57.060Z,4.90
2023-05-12T12:13:02.509Z,4.13
2023-05-12T12:16:05.928Z,3.23
2023-05-12T12:19:09.047Z,3.23
2023-05-12T12:22:14.837Z,3.73
2023-05-12T12:25:17.631Z,3.77
2023-05-12T12:28:22.135Z,4.07
2023-05-12T12:31:24.898Z,2.20
2023-05-12T12:34:27.823Z,2.27
2023-05-12T12:37:30.491Z,3.37
2023-05-12T12:40:33.254Z,2.30
2023-05-12T12:43:37.472Z,1.47
2023-05-12T12:46:40.412Z,3.27
2023-05-12T12:49:43.216Z,1.20
2023-05-12T12:52:45.931Z,2.87
2023-05-12T12:55:48.640Z,2.00
2023-05-12T12:58:52.913Z,1.90
2023-05-12T13:01:55.738Z,2.07
2023-05-12T13:04:59.209Z,1.97
2023-05-12T13:08:01.928Z,2.80
2023-05-12T13:11:04.712Z,1.50
2023-05-12T13:14:08.782Z,4.07
2023-05-12T13:17:11.537Z,2.47
2023-05-12T13:20:14.999Z,1.20
2023-05-12T13:23:17.748Z,3.40
2023-05-12T13:26:21.045Z,3.73
2023-05-12T13:29:25.225Z,2.43
2023-05-12T13:32:28.395Z,4.07
2023-05-12T13:35:31.244Z,2.63
2023-05-12T13:38:34.606Z,1.90
2023-05-12T13:41:38.024Z,7.00
2023-05-12T13:44:42.494Z,2.50
2023-05-12T13:47:45.496Z,1.47
2023-05-12T13:50:48.827Z,3.90
2023-05-12T13:53:51.501Z,3.13
2023-05-12T13:56:54.763Z,2.23
2023-05-12T13:59:58.819Z,5.17
2023-05-12T14:03:01.706Z,3.37
2023-05-12T14:06:05.159Z,5.73
2023-05-12T14:09:07.904Z,3.73
2023-05-12T14:12:10.812Z,4.17
2023-05-12T14:15:28.955Z,8.30
2023-05-12T14:18:35.503Z,2.90
2023-05-12T14:21:40.968Z,2.60
2023-05-12T14:24:43.695Z,3.67
2023-05-12T14:27:46.815Z,2.77
2023-05-12T14:30:50.871Z,2.33
2023-05-12T14:33:54.142Z,1.53
2023-05-12T14:36:57.286Z,2.07
2023-05-12T14:40:00.165Z,4.70
2023-05-12T14:43:03.378Z,3.43
2023-05-12T14:46:12.429Z,2.13
2023-05-12T14:49:17.558Z,4.57
2023-05-12T14:52:20.187Z,1.77
2023-05-12T14:55:22.991Z,1.07
2023-05-12T14:58:25.998Z,3.33
2023-05-12T15:01:30.099Z,2.50
2023-05-12T15:04:32.847Z,1.53
2023-05-12T15:07:35.571Z,3.10
2023-05-12T15:10:39.337Z,2.73
2023-05-12T15:13:42.012Z,2.50
2023-05-12T15:16:46.224Z,2.37
2023-05-12T15:19:49.438Z,5.13
2023-05-12T15:22:54.265Z,2.33
2023-05-12T15:25:58.128Z,3.53
2023-05-12T15:29:02.924Z,1.30
2023-05-12T15:32:10.544Z,1.70
2023-05-12T15:35:14.069Z,1.67
2023-05-12T15:38:16.844Z,4.77
2023-05-12T15:41:19.633Z,2.70
2023-05-12T15:44:22.454Z,4.83
2023-05-12T15:47:27.426Z,3.97
2023-05-12T15:50:30.486Z,1.73
2023-05-12T15:53:33.217Z,6.67
2023-05-12T15:56:35.913Z,1.67
2023-05-12T15:59:38.661Z,2.43
2023-05-12T16:02:42.733Z,3.73
2023-05-12T16:05:45.553Z,2.50
2023-05-12T16:08:48.439Z,1.30
2023-05-12T16:11:52.027Z,1.93
2023-05-12T16:14:54.752Z,2.13
2023-05-12T16:17:58.838Z,2.20
2023-05-12T16:21:03.071Z,2.30
2023-05-12T16:24:08.838Z,3.67
2023-05-12T16:27:11.692Z,1.67
2023-05-12T16:30:16.222Z,2.13
2023-05-12T16:33:21.885Z,3.40
2023-05-12T16:36:25.128Z,2.10
2023-05-12T16:39:28.003Z,3.80
2023-05-12T16:42:31.106Z,2.37
2023-05-12T16:45:33.937Z,2.07
2023-05-12T16:48:38.404Z,2.50
2023-05-12T16:51:41.041Z,1.40
2023-05-12T16:54:44.238Z,2.40
2023-05-12T16:57:46.931Z,2.57
2023-05-12T17:00:49.697Z,2.70
2023-05-12T17:03:54.016Z,3.13
2023-05-12T17:06:57.971Z,1.50
2023-05-12T17:10:00.698Z,2.83
2023-05-12T17:13:05.395Z,6.50
2023-05-12T17:16:08.427Z,4.57
2023-05-12T17:19:14.086Z,2.87
2023-05-12T17:22:17.226Z,1.30
2023-05-12T17:25:20.366Z,3.67
2023-05-12T17:28:23.225Z,2.60
2023-05-12T17:31:26.007Z,2.83
2023-05-12T17:34:30.104Z,4.27
2023-05-12T17:37:33.616Z,3.00
2023-05-12T17:40:36.455Z,1.50
2023-05-12T17:43:39.161Z,2.07
2023-05-12T17:46:41.965Z,6.37
2023-05-12T17:49:46.208Z,2.07
2023-05-12T17:52:48.930Z,3.60
2023-05-12T17:55:51.663Z,5.10
2023-05-12T17:58:54.514Z,7.20
2023-05-12T18:01:57.246Z,3.70
2023-05-12T18:05:01.439Z,7.20
2023-05-12T18:08:04.264Z,2.33
2023-05-12T18:11:06.902Z,7.83
2023-05-12T18:14:09.522Z,9.27
2023-05-12T18:17:12.262Z,9.87
2023-05-12T18:20:16.687Z,4.33
2023-05-12T18:23:19.342Z,7.63
2023-05-12T18:26:22.079Z,4.40
2023-05-12T18:29:24.899Z,5.13
2023-05-12T18:32:27.593Z,4.73
2023-05-12T18:35:31.702Z,4.60
2023-05-12T18:38:34.808Z,3.47
2023-05-12T18:41:38.817Z,4.73
2023-05-12T18:44:42.258Z,4.70
2023-05-12T18:47:45.330Z,3.90
2023-05-12T18:50:49.424Z,10.60
2023-05-12T18:53:52.136Z,5.23
2023-05-12T18:56:54.815Z,13.57
2023-05-12T18:59:58.521Z,8.93
2023-05-12T19:03:02.908Z,10.47
2023-05-12T19:06:07.413Z,5.77
2023-05-12T19:09:10.102Z,7.43
2023-05-12T19:12:12.812Z,4.07
2023-05-12T19:15:16.289Z,4.90
2023-05-12T19:18:19.593Z,6.17
2023-05-12T19:21:23.706Z,6.23
2023-05-12T19:24:27.129Z,4.67
2023-05-12T19:27:30.091Z,7.23
2023-05-12T19:30:32.986Z,5.33
2023-05-12T19:33:35.979Z,3.80
2023-05-12T19:36:40.114Z,6.80
2023-05-12T19:39:42.737Z,5.53
2023-05-12T19:42:45.491Z,6.13
2023-05-12T19:45:48.281Z,4.53
2023-05-12T19:48:52.020Z,5.83
2023-05-12T19:51:56.073Z,6.53
2023-05-12T19:54:58.857Z,4.97
2023-05-12T19:58:01.958Z,6.33
2023-05-12T20:01:05.194Z,6.10
2023-05-12T20:04:08.557Z,8.40
2023-05-12T20:07:13.265Z,5.10
2023-05-12T20:10:16.180Z,8.83
2023-05-12T20:13:18.951Z,11.23
2023-05-12T20:16:21.765Z,9.83
2023-05-12T20:19:25.551Z,8.20
2023-05-12T20:22:29.591Z,8.97
2023-05-12T20:25:33.170Z,8.47
2023-05-12T20:28:35.927Z,9.50
2023-05-12T20:31:38.679Z,9.03
2023-05-12T20:34:41.428Z,10.87
2023-05-12T20:37:45.456Z,8.33
2023-05-12T20:40:48.145Z,8.30
2023-05-12T20:43:50.876Z,10.33
2023-05-12T20:46:53.928Z,11.80
2023-05-12T20:49:57.314Z,11.40
2023-05-12T20:53:01.283Z,9.20
2023-05-12T20:56:04.025Z,12.57
2023-05-12T20:59:06.810Z,10.23
2023-05-12T21:02:10.675Z,12.50
2023-05-12T21:05:13.568Z,11.90
2023-05-12T21:08:17.604Z,16.27
2023-05-12T21:11:21.023Z,12.77
2023-05-12T21:14:23.677Z,10.23
2023-05-12T21:17:26.460Z,9.90
2023-05-12T21:20:29.233Z,8.00
2023-05-12T21:23:33.610Z,16.33
2023-05-12T21:26:36.288Z,6.30
2023-05-12T21:29:39.149Z,6.87
2023-05-12T21:32:44.338Z,8.70
2023-05-12T21:35:47.141Z,9.80
2023-05-12T21:38:51.157Z,8.47
2023-05-12T21:41:53.794Z,6.67
2023-05-12T21:44:56.499Z,10.27
2023-05-12T21:47:59.258Z,9.37
2023-05-12T21:51:03.599Z,13.53
2023-05-12T21:54:08.790Z,7.37
2023-05-12T21:57:11.527Z,7.00
2023-05-12T22:00:15.090Z,9.93
2023-05-12T22:03:20.293Z,8.47
2023-05-12T22:06:23.052Z,5.80
2023-05-12T22:09:29.695Z,5.60
2023-05-12T22:12:33.897Z,7.07
2023-05-12T22:15:36.915Z,11.43
2023-05-12T22:18:43.404Z,9.23
2023-05-12T22:21:46.652Z,7.07
2023-05-12T22:24:52.663Z,7.50
2023-05-12T22:27:55.318Z,8.43
2023-05-12T22:30:57.998Z,9.07
2023-05-12T22:34:00.708Z,8.00
2023-05-12T22:37:04.031Z,9.20
2023-05-12T22:40:09.496Z,8.60
2023-05-12T22:43:15.284Z,7.10
2023-05-12T22:46:18.090Z,10.57
2023-05-12T22:49:20.903Z,7.30
2023-05-12T22:52:23.608Z,8.73
2023-05-12T22:55:30.732Z,7.40
2023-05-12T22:58:33.440Z,9.17
2023-05-12T23:01:36.657Z,9.90
2023-05-12T23:04:39.710Z,7.50
2023-05-12T23:07:42.343Z,9.67
2023-05-12T23:10:46.469Z,8.50
2023-05-12T23:13:49.160Z,9.73
2023-05-12T23:16:51.862Z,8.43
2023-05-12T23:19:54.529Z,4.70
2023-05-12T23:22:57.263Z,6.17
2023-05-12T23:26:01.258Z,11.47
2023-05-12T23:29:04.085Z,18.87
2023-05-12T23:32:07.348Z,23.10
2023-05-12T23:35:10.960Z,10.37
2023-05-12T23:38:13.634Z,11.40
2023-05-12T23:41:17.696Z,7.77
2023-05-12T23:44:20.565Z,12.13
2023-05-12T23:47:23.293Z,10.40
2023-05-12T23:50:26.037Z,12.43
2023-05-12T23:53:28.690Z,20.27
2023-05-12T23:56:32.734Z,14.93
2023-05-12T23:59:35.389Z,10.33
